Goforth, Kentucky
Current Conditions -  °F | °C
As of 4:53 AM on Saturday 29 Nov 2014 (Local Time) from KLUK Reporting Station
Clear Clear  
Wind Chill: 28°   Ceiling: Unl
Heat Index: 34°   Visibility: 10mi
Dew Point: 21°   Wind: 7mph
Humidity: 59%   Direction: 190°S
Pressure: 30.06"   Gusts: NA
Location:  38.6506°N, 84.351°W
Report Text: KLUK 290953Z AUTO 19006KT 10SM CLR 01/M06 A3006 RMK AO2 SLP184 T00111061
Loading
Personal Weather Stations






























Interactive Weather Map New forecast layout! Learn more

10-Day Weather Forecast

Advertisements
Track Severe Weather on mobile